createdAt,value
2022-08-17T00:00:01.088Z,84.64
2022-08-17T00:02:27.871Z,84.04
2022-08-17T00:04:55.605Z,84.28
2022-08-17T00:07:22.726Z,85.07
2022-08-17T00:09:49.377Z,84.89
2022-08-17T00:12:41.499Z,85.39
2022-08-17T00:15:05.908Z,85.54
2022-08-17T00:17:38.281Z,85.46
2022-08-17T00:20:06.490Z,86.20
2022-08-17T00:22:36.498Z,85.94
2022-08-17T00:25:07.453Z,86.18
2022-08-17T00:27:34.746Z,86.77
2022-08-17T00:30:01.587Z,87.37
2022-08-17T00:33:12.357Z,88.07
2022-08-17T00:35:19.387Z,87.54
2022-08-17T00:37:46.361Z,87.27
2022-08-17T00:40:15.174Z,87.45
2022-08-17T00:42:43.452Z,87.45
2022-08-17T00:45:14.521Z,88.37
2022-08-17T00:47:41.913Z,88.67
2022-08-17T00:50:12.424Z,88.62
2022-08-17T00:52:46.020Z,88.33
2022-08-17T00:55:13.448Z,88.28
2022-08-17T00:57:44.993Z,88.84
2022-08-17T01:00:26.714Z,89.52
2022-08-17T01:03:01.297Z,89.74
2022-08-17T01:05:31.535Z,89.93
2022-08-17T01:08:00.995Z,89.86
2022-08-17T01:10:58.383Z,89.94
2022-08-17T01:13:24.018Z,89.92
2022-08-17T01:15:55.874Z,90.41
2022-08-17T01:18:22.919Z,89.18
2022-08-17T01:20:52.410Z,89.73
2022-08-17T01:23:22.279Z,88.48
2022-08-17T01:25:52.298Z,88.34
2022-08-17T01:28:33.466Z,88.14
2022-08-17T01:31:08.740Z,88.37
2022-08-17T01:33:35.933Z,88.05
2022-08-17T01:36:04.275Z,87.65
2022-08-17T01:38:31.940Z,87.87
2022-08-17T01:41:03.618Z,87.86
2022-08-17T01:43:35.175Z,88.06
2022-08-17T01:46:03.874Z,87.75
2022-08-17T01:48:33.423Z,87.72
2022-08-17T01:51:00.700Z,88.07
2022-08-17T01:53:35.056Z,87.77
2022-08-17T01:56:13.674Z,88.19
2022-08-17T01:58:41.798Z,88.16
2022-08-17T02:01:10.901Z,89.10
2022-08-17T02:03:38.376Z,88.49
2022-08-17T02:06:21.031Z,89.57
2022-08-17T02:09:01.600Z,89.84
2022-08-17T02:11:32.988Z,89.82
2022-08-17T02:14:02.850Z,90.32
2022-08-17T02:16:36.947Z,89.34
2022-08-17T02:19:08.079Z,89.20
2022-08-17T02:21:37.067Z,89.47
2022-08-17T02:24:06.740Z,89.61
2022-08-17T02:26:33.722Z,89.35
2022-08-17T02:29:00.583Z,89.34
2022-08-17T02:31:27.334Z,89.35
2022-08-17T02:34:00.233Z,89.24
2022-08-17T02:36:33.015Z,89.12
2022-08-17T02:39:08.037Z,89.12
2022-08-17T02:41:36.551Z,89.18
2022-08-17T02:44:05.873Z,89.28
2022-08-17T02:46:32.830Z,89.27
2022-08-17T02:49:00.234Z,89.25
2022-08-17T02:51:27.890Z,89.26
2022-08-17T02:54:02.821Z,89.58
2022-08-17T02:56:42.230Z,89.43
2022-08-17T02:59:08.913Z,89.51
2022-08-17T03:01:35.582Z,89.51
2022-08-17T03:04:02.759Z,89.77
2022-08-17T03:06:29.658Z,90.49
2022-08-17T03:08:56.313Z,90.83
2022-08-17T03:11:23.661Z,90.78
2022-08-17T03:13:51.088Z,91.00
2022-08-17T03:16:17.807Z,90.77
2022-08-17T03:18:44.716Z,90.70
2022-08-17T03:21:11.649Z,90.66
2022-08-17T03:23:41.187Z,90.52
2022-08-17T03:26:15.407Z,90.96
2022-08-17T03:28:43.219Z,90.79
2022-08-17T03:31:10.180Z,91.00
2022-08-17T03:33:36.843Z,90.44
2022-08-17T03:36:03.779Z,90.53
2022-08-17T03:38:38.877Z,90.31
2022-08-17T03:41:07.002Z,90.47
2022-08-17T03:43:34.693Z,90.37
2022-08-17T03:46:28.341Z,90.25
2022-08-17T03:49:19.794Z,90.11
2022-08-17T03:52:05.155Z,89.24
2022-08-17T03:54:51.209Z,89.14
2022-08-17T03:57:19.127Z,89.14
2022-08-17T03:59:46.622Z,89.57
2022-08-17T04:02:19.023Z,89.89
2022-08-17T04:04:46.925Z,89.70
2022-08-17T04:07:13.600Z,89.35
2022-08-17T04:09:40.352Z,89.27
2022-08-17T04:12:07.449Z,89.47
2022-08-17T04:14:51.712Z,89.56
2022-08-17T04:17:25.971Z,89.49
2022-08-17T04:19:53.695Z,89.32
2022-08-17T04:22:32.136Z,88.94
2022-08-17T04:25:05.285Z,88.54
2022-08-17T04:27:32.566Z,88.22
2022-08-17T04:29:59.189Z,87.63
2022-08-17T04:33:00.516Z,87.26
2022-08-17T04:35:12.836Z,87.19
2022-08-17T04:37:39.604Z,87.33
2022-08-17T04:40:26.048Z,87.34
2022-08-17T04:43:02.781Z,87.35
2022-08-17T04:45:31.982Z,86.52
2022-08-17T04:48:00.801Z,86.82
2022-08-17T04:50:27.832Z,86.50
2022-08-17T04:52:55.982Z,86.26
2022-08-17T04:55:23.416Z,86.44
2022-08-17T04:57:50.105Z,86.55
2022-08-17T05:00:16.827Z,86.73
2022-08-17T05:02:49.572Z,86.13
2022-08-17T05:05:32.790Z,85.11
2022-08-17T05:08:02.452Z,84.42
2022-08-17T05:10:33.077Z,84.37
2022-08-17T05:13:02.363Z,84.23
2022-08-17T05:15:33.229Z,84.17
2022-08-17T05:18:03.888Z,84.26
2022-08-17T05:20:31.713Z,84.16
2022-08-17T05:23:04.501Z,83.92
2022-08-17T05:25:37.396Z,84.08
2022-08-17T05:28:05.390Z,84.49
2022-08-17T05:30:34.868Z,84.32
2022-08-17T05:33:10.708Z,83.99
2022-08-17T05:35:42.598Z,84.01
2022-08-17T05:38:09.832Z,83.89
2022-08-17T05:40:37.454Z,84.07
2022-08-17T05:43:15.001Z,82.99
2022-08-17T05:46:06.175Z,82.79
2022-08-17T05:48:40.190Z,82.80
2022-08-17T05:51:42.262Z,82.61
2022-08-17T05:54:33.776Z,82.22
2022-08-17T05:57:27.492Z,81.48
2022-08-17T06:00:10.722Z,81.60
2022-08-17T06:02:58.432Z,80.43
2022-08-17T06:05:47.271Z,80.94
2022-08-17T06:08:23.586Z,81.08
2022-08-17T06:10:53.207Z,80.86
2022-08-17T06:13:35.286Z,80.33
2022-08-17T06:16:31.079Z,80.07
2022-08-17T06:19:01.072Z,79.77
2022-08-17T06:21:34.925Z,79.37
2022-08-17T06:24:24.647Z,80.00
2022-08-17T06:26:53.580Z,80.04
2022-08-17T06:29:50.791Z,79.63
2022-08-17T06:32:18.292Z,79.16
2022-08-17T06:34:46.295Z,78.75
2022-08-17T06:37:21.915Z,77.61
2022-08-17T06:39:59.695Z,77.82
2022-08-17T06:43:05.811Z,76.87
2022-08-17T06:45:49.486Z,77.07
2022-08-17T06:48:32.883Z,76.29
2022-08-17T06:51:25.907Z,75.23
2022-08-17T06:54:22.483Z,75.05
2022-08-17T06:56:59.602Z,74.89
2022-08-17T06:59:54.529Z,75.62
2022-08-17T07:02:52.396Z,75.27
2022-08-17T07:05:38.861Z,75.27
2022-08-17T07:08:44.478Z,75.35
2022-08-17T07:11:16.041Z,75.26
2022-08-17T07:14:36.930Z,75.55
2022-08-17T07:17:10.394Z,75.35
2022-08-17T07:19:41.146Z,75.17
2022-08-17T07:22:57.874Z,74.39
2022-08-17T07:25:28.586Z,74.32
2022-08-17T07:28:00.217Z,74.47
2022-08-17T07:30:46.998Z,74.35
2022-08-17T07:33:20.455Z,74.11
2022-08-17T07:35:48.452Z,74.31
2022-08-17T07:38:26.995Z,74.18
2022-08-17T07:40:57.491Z,72.58
2022-08-17T07:43:48.449Z,72.43
2022-08-17T07:46:42.846Z,72.02
2022-08-17T07:49:09.589Z,72.72
2022-08-17T07:51:44.304Z,72.88
2022-08-17T07:54:23.326Z,73.70
2022-08-17T07:56:53.448Z,72.55
2022-08-17T07:59:23.823Z,72.29
2022-08-17T08:01:57.966Z,72.10
2022-08-17T08:05:00.201Z,72.47
2022-08-17T08:07:24.413Z,72.53
2022-08-17T08:10:25.082Z,72.22
2022-08-17T08:13:10.685Z,72.37
2022-08-17T08:15:54.217Z,72.24
2022-08-17T08:18:53.740Z,70.82
2022-08-17T08:21:29.075Z,70.85
2022-08-17T08:24:13.431Z,69.75
2022-08-17T08:27:02.594Z,69.45
2022-08-17T08:30:10.088Z,68.17
2022-08-17T08:33:07.600Z,68.29
2022-08-17T08:35:47.430Z,67.93
2022-08-17T08:38:30.811Z,67.45
2022-08-17T08:41:11.822Z,66.17
2022-08-17T08:44:00.844Z,65.81
2022-08-17T08:46:42.313Z,65.34
2022-08-17T08:50:01.980Z,64.47
2022-08-17T08:52:28.374Z,64.48
2022-08-17T08:55:13.635Z,62.93
2022-08-17T08:57:47.101Z,63.93
2022-08-17T09:00:20.689Z,62.02
2022-08-17T09:02:59.181Z,63.18
2022-08-17T09:05:39.232Z,63.57
2022-08-17T09:08:18.130Z,63.68
2022-08-17T09:10:45.012Z,64.69
2022-08-17T09:13:23.515Z,63.91
2022-08-17T09:16:33.206Z,64.04
2022-08-17T09:19:30.432Z,64.77
2022-08-17T09:22:03.450Z,65.04
2022-08-17T09:24:40.114Z,65.27
2022-08-17T09:27:14.376Z,65.68
2022-08-17T09:29:57.772Z,66.19
2022-08-17T09:32:38.202Z,66.10
2022-08-17T09:35:20.875Z,66.58
2022-08-17T09:38:05.839Z,66.94
2022-08-17T09:40:55.682Z,67.40
2022-08-17T09:43:44.779Z,67.87
2022-08-17T09:46:28.520Z,67.24
2022-08-17T09:49:15.094Z,67.24
2022-08-17T09:51:48.743Z,65.42
2022-08-17T09:54:39.312Z,65.90
2022-08-17T09:57:32.160Z,65.83
2022-08-17T10:00:15.836Z,65.88
2022-08-17T10:03:09.637Z,64.58
2022-08-17T10:05:56.592Z,65.29
2022-08-17T10:08:54.033Z,64.25
2022-08-17T10:12:03.480Z,64.95
2022-08-17T10:14:44.080Z,64.90
2022-08-17T10:17:38.048Z,65.66
2022-08-17T10:20:20.489Z,65.64
2022-08-17T10:23:10.648Z,61.29
2022-08-17T10:26:04.152Z,62.51
2022-08-17T10:28:44.247Z,62.62
2022-08-17T10:31:34.300Z,60.55
2022-08-17T10:34:29.702Z,59.77
2022-08-17T10:37:25.181Z,60.93
2022-08-17T10:40:19.184Z,60.06
2022-08-17T10:43:00.534Z,60.93
2022-08-17T10:45:36.778Z,61.81
2022-08-17T10:48:07.310Z,62.58
2022-08-17T10:50:43.239Z,63.93
2022-08-17T10:53:10.313Z,62.72
2022-08-17T10:55:39.153Z,61.76
2022-08-17T10:58:22.118Z,62.12
2022-08-17T11:00:52.457Z,62.26
2022-08-17T11:03:22.501Z,61.91
2022-08-17T11:05:54.015Z,61.78
2022-08-17T11:08:36.360Z,60.97
2022-08-17T11:11:49.942Z,60.93
2022-08-17T11:14:34.973Z,61.16
2022-08-17T11:17:19.793Z,61.43
2022-08-17T11:20:07.046Z,60.56
2022-08-17T11:22:58.014Z,61.13
2022-08-17T11:25:43.703Z,59.80
2022-08-17T11:28:34.416Z,60.14
2022-08-17T11:31:23.831Z,60.15
2022-08-17T11:34:17.062Z,60.24
2022-08-17T11:37:05.397Z,59.59
2022-08-17T11:40:12.585Z,59.31
2022-08-17T11:42:46.893Z,59.45
2022-08-17T11:45:38.091Z,58.93
2022-08-17T11:48:39.283Z,59.21
2022-08-17T11:51:34.781Z,59.08
2022-08-17T11:54:30.996Z,59.56
2022-08-17T11:56:53.362Z,58.23
2022-08-17T11:59:43.765Z,57.78
2022-08-17T12:02:20.167Z,57.23
2022-08-17T12:05:02.885Z,56.37
2022-08-17T12:07:32.787Z,56.12
2022-08-17T12:10:01.100Z,55.50
2022-08-17T12:12:33.419Z,55.45
2022-08-17T12:15:10.599Z,55.35
2022-08-17T12:17:40.892Z,55.05
2022-08-17T12:20:29.335Z,55.41
2022-08-17T12:23:21.070Z,56.79
2022-08-17T12:25:49.291Z,57.11
2022-08-17T12:28:35.182Z,57.71
2022-08-17T12:31:34.622Z,58.33
2022-08-17T12:34:05.540Z,58.40
2022-08-17T12:36:32.889Z,54.86
2022-08-17T12:39:13.999Z,56.80
2022-08-17T12:41:45.093Z,54.45
2022-08-17T12:44:12.314Z,55.98
2022-08-17T12:47:00.641Z,56.46
2022-08-17T12:49:31.592Z,56.51
2022-08-17T12:52:08.463Z,55.06
2022-08-17T12:54:45.417Z,55.95
2022-08-17T12:57:34.087Z,55.57
2022-08-17T13:00:28.045Z,57.09
2022-08-17T13:03:05.913Z,56.53
2022-08-17T13:05:39.670Z,55.39
2022-08-17T13:08:17.716Z,54.78
2022-08-17T13:10:54.848Z,55.21
2022-08-17T13:13:27.519Z,54.80
2022-08-17T13:16:03.939Z,53.88
2022-08-17T13:18:58.451Z,54.30
2022-08-17T13:21:30.626Z,54.19
2022-08-17T13:24:17.611Z,54.01
2022-08-17T13:26:49.620Z,54.82
2022-08-17T13:29:23.924Z,54.91
2022-08-17T13:31:56.698Z,55.01
2022-08-17T13:35:11.768Z,55.54
2022-08-17T13:37:34.395Z,55.85
2022-08-17T13:40:10.389Z,55.81
2022-08-17T13:42:51.859Z,54.31
2022-08-17T13:45:36.280Z,54.84
2022-08-17T13:48:12.514Z,55.44
2022-08-17T13:50:59.569Z,55.65
2022-08-17T13:53:34.007Z,56.32
2022-08-17T13:56:02.343Z,55.81
2022-08-17T13:58:33.243Z,56.45
2022-08-17T14:01:39.266Z,56.32
2022-08-17T14:04:10.023Z,56.56
2022-08-17T14:06:53.277Z,56.82
2022-08-17T14:09:27.396Z,56.87
2022-08-17T14:11:56.847Z,56.99
2022-08-17T14:14:25.437Z,57.42
2022-08-17T14:16:53.139Z,56.80
2022-08-17T14:19:21.841Z,56.82
2022-08-17T14:21:49.305Z,57.45
2022-08-17T14:24:29.258Z,56.73
2022-08-17T14:26:57.620Z,56.97
2022-08-17T14:29:27.842Z,56.74
2022-08-17T14:31:56.053Z,57.58
2022-08-17T14:34:24.568Z,57.18
2022-08-17T14:36:51.918Z,56.29
2022-08-17T14:39:19.690Z,56.04
2022-08-17T14:41:47.127Z,57.39
2022-08-17T14:44:13.848Z,57.11
2022-08-17T14:46:43.003Z,57.41
2022-08-17T14:49:12.620Z,56.47
2022-08-17T14:51:43.627Z,57.26
2022-08-17T14:54:32.867Z,56.21
2022-08-17T14:57:22.495Z,55.92
2022-08-17T14:59:50.713Z,55.73
2022-08-17T15:02:30.687Z,55.35
2022-08-17T15:05:00.361Z,54.95
2022-08-17T15:07:30.783Z,55.16
2022-08-17T15:10:00.528Z,54.68
2022-08-17T15:12:32.377Z,55.78
2022-08-17T15:15:02.054Z,54.69
2022-08-17T15:17:45.277Z,54.35
2022-08-17T15:20:19.698Z,54.30
2022-08-17T15:22:49.919Z,54.36
2022-08-17T15:25:19.023Z,54.19
2022-08-17T15:27:45.994Z,54.31
2022-08-17T15:30:13.203Z,54.30
2022-08-17T15:32:45.817Z,54.46
2022-08-17T15:35:19.422Z,54.80
2022-08-17T15:38:06.485Z,54.71
2022-08-17T15:40:36.957Z,55.19
2022-08-17T15:43:06.577Z,54.96
2022-08-17T15:45:33.544Z,54.33
2022-08-17T15:48:00.531Z,54.62
2022-08-17T15:50:27.617Z,54.82
2022-08-17T15:53:00.173Z,54.95
2022-08-17T15:55:29.076Z,54.95
2022-08-17T15:57:55.983Z,55.12
2022-08-17T16:00:28.324Z,55.12
2022-08-17T16:03:46.813Z,55.41
2022-08-17T16:05:42.957Z,55.73
2022-08-17T16:08:11.132Z,56.03
2022-08-17T16:10:38.149Z,56.28
2022-08-17T16:13:05.061Z,56.47
2022-08-17T16:15:44.352Z,56.77
2022-08-17T16:18:11.544Z,56.75
2022-08-17T16:20:38.266Z,56.99
2022-08-17T16:23:05.345Z,57.32
2022-08-17T16:25:47.142Z,57.22
2022-08-17T16:28:20.777Z,56.64
2022-08-17T16:30:47.525Z,56.96
2022-08-17T16:33:16.645Z,57.01
2022-08-17T16:35:43.979Z,56.84
2022-08-17T16:38:12.431Z,57.01
2022-08-17T16:40:40.439Z,57.02
2022-08-17T16:43:10.652Z,57.11
2022-08-17T16:45:40.219Z,57.07
2022-08-17T16:48:09.266Z,57.15
2022-08-17T16:50:37.098Z,56.90
2022-08-17T16:53:16.512Z,56.49
2022-08-17T16:55:44.993Z,56.94
2022-08-17T16:58:11.798Z,56.85
2022-08-17T17:00:39.067Z,56.62
2022-08-17T17:03:19.782Z,56.74
2022-08-17T17:06:03.656Z,56.54
2022-08-17T17:08:38.323Z,56.80
2022-08-17T17:11:15.832Z,56.73
2022-08-17T17:13:57.878Z,57.08
2022-08-17T17:16:47.746Z,57.10
2022-08-17T17:19:35.126Z,57.24
2022-08-17T17:22:20.577Z,57.68
2022-08-17T17:25:06.531Z,57.89
2022-08-17T17:28:06.975Z,58.15
2022-08-17T17:30:43.709Z,58.49
2022-08-17T17:33:17.565Z,59.11
2022-08-17T17:36:15.877Z,59.08
2022-08-17T17:38:52.805Z,59.35
2022-08-17T17:41:29.023Z,59.64
2022-08-17T17:44:12.927Z,59.75
2022-08-17T17:46:50.541Z,60.03
2022-08-17T17:49:18.671Z,60.46
2022-08-17T17:52:19.105Z,60.65
2022-08-17T17:54:55.299Z,60.75
2022-08-17T17:57:45.046Z,60.93
2022-08-17T18:00:31.014Z,60.75
2022-08-17T18:03:24.502Z,61.11
2022-08-17T18:06:09.776Z,60.98
2022-08-17T18:09:19.476Z,61.17
2022-08-17T18:12:08.707Z,61.34
2022-08-17T18:14:50.959Z,61.67
2022-08-17T18:17:18.296Z,61.96
2022-08-17T18:19:47.101Z,61.57
2022-08-17T18:22:18.224Z,62.55
2022-08-17T18:24:47.633Z,62.89
2022-08-17T18:27:25.926Z,62.20
2022-08-17T18:29:55.581Z,63.30
2022-08-17T18:32:41.388Z,63.42
2022-08-17T18:35:11.435Z,63.70
2022-08-17T18:37:51.726Z,64.10
2022-08-17T18:40:23.345Z,64.50
2022-08-17T18:42:50.048Z,64.72
2022-08-17T18:45:33.249Z,63.74
2022-08-17T18:48:01.575Z,64.62
2022-08-17T18:50:41.161Z,65.33
2022-08-17T18:53:33.428Z,65.27
2022-08-17T18:56:33.827Z,65.54
2022-08-17T18:59:04.465Z,65.70
2022-08-17T19:01:59.948Z,66.12
2022-08-17T19:04:40.658Z,66.13
2022-08-17T19:07:09.732Z,66.57
2022-08-17T19:09:43.683Z,66.47
2022-08-17T19:12:26.409Z,66.74
2022-08-17T19:14:56.910Z,66.76
2022-08-17T19:17:39.720Z,66.97
2022-08-17T19:20:15.768Z,67.03
2022-08-17T19:22:56.367Z,67.31
2022-08-17T19:25:28.535Z,67.52
2022-08-17T19:28:06.180Z,67.32
2022-08-17T19:30:54.710Z,67.33
2022-08-17T19:33:22.087Z,67.64
2022-08-17T19:36:04.341Z,67.41
2022-08-17T19:38:44.727Z,67.84
2022-08-17T19:41:11.817Z,67.85
2022-08-17T19:43:55.152Z,68.20
2022-08-17T19:46:49.932Z,68.29
2022-08-17T19:49:33.431Z,68.36
2022-08-17T19:52:37.648Z,68.88
2022-08-17T19:55:24.754Z,68.89
2022-08-17T19:58:08.184Z,69.40
2022-08-17T20:00:49.820Z,69.59
2022-08-17T20:03:43.176Z,69.72
2022-08-17T20:06:13.788Z,69.70
2022-08-17T20:09:03.442Z,70.04
2022-08-17T20:11:42.011Z,70.32
2022-08-17T20:14:14.476Z,70.54
2022-08-17T20:16:41.938Z,70.71
2022-08-17T20:19:31.508Z,70.91
2022-08-17T20:22:10.494Z,71.05
2022-08-17T20:24:56.261Z,71.60
2022-08-17T20:27:32.046Z,71.66
2022-08-17T20:30:01.696Z,72.28
2022-08-17T20:32:33.112Z,72.78
2022-08-17T20:35:19.830Z,72.85
2022-08-17T20:38:36.185Z,72.87
2022-08-17T20:41:04.028Z,72.97
2022-08-17T20:43:35.254Z,73.59
2022-08-17T20:46:32.070Z,73.53
2022-08-17T20:49:19.129Z,73.66
2022-08-17T20:52:02.438Z,73.90
2022-08-17T20:54:49.917Z,73.93
2022-08-17T20:57:32.099Z,74.00
2022-08-17T21:00:14.394Z,74.08
2022-08-17T21:03:10.735Z,74.24
2022-08-17T21:05:57.336Z,74.43
2022-08-17T21:08:29.648Z,74.33
2022-08-17T21:10:58.607Z,74.53
2022-08-17T21:13:48.644Z,74.29
2022-08-17T21:16:54.754Z,74.29
2022-08-17T21:19:24.737Z,74.31
2022-08-17T21:22:12.661Z,73.91
2022-08-17T21:24:55.413Z,73.26
2022-08-17T21:27:25.431Z,73.01
2022-08-17T21:30:13.935Z,73.38
2022-08-17T21:32:44.416Z,73.49
2022-08-17T21:35:11.042Z,73.73
2022-08-17T21:37:40.491Z,74.02
2022-08-17T21:40:10.638Z,74.06
2022-08-17T21:42:59.118Z,74.23
2022-08-17T21:45:30.450Z,74.32
2022-08-17T21:48:19.861Z,74.82
2022-08-17T21:51:19.876Z,74.74
2022-08-17T21:53:53.110Z,75.28
2022-08-17T21:56:32.963Z,75.27
2022-08-17T21:59:04.459Z,75.69
2022-08-17T22:01:37.429Z,75.91
2022-08-17T22:04:26.433Z,75.97
2022-08-17T22:06:57.145Z,76.03
2022-08-17T22:09:31.940Z,76.42
2022-08-17T22:12:05.362Z,76.48
2022-08-17T22:14:51.482Z,76.33
2022-08-17T22:17:35.522Z,76.39
2022-08-17T22:20:14.248Z,76.30
2022-08-17T22:23:08.965Z,76.40
2022-08-17T22:25:56.363Z,76.68
2022-08-17T22:28:52.373Z,76.76
2022-08-17T22:31:22.621Z,76.64
2022-08-17T22:33:51.767Z,76.95
2022-08-17T22:36:29.166Z,77.10
2022-08-17T22:39:26.251Z,76.95
2022-08-17T22:42:00.213Z,77.01
2022-08-17T22:44:32.082Z,77.05
2022-08-17T22:47:21.526Z,76.93
2022-08-17T22:49:53.296Z,76.04
2022-08-17T22:52:57.958Z,76.76
2022-08-17T22:55:45.558Z,76.81
2022-08-17T22:58:33.863Z,76.99
2022-08-17T23:01:22.663Z,77.15
2022-08-17T23:04:04.685Z,77.30
2022-08-17T23:06:34.253Z,77.44
2022-08-17T23:09:03.876Z,77.67
2022-08-17T23:11:45.823Z,77.44
2022-08-17T23:14:20.287Z,77.50
2022-08-17T23:16:49.067Z,77.57
2022-08-17T23:19:19.530Z,77.63
2022-08-17T23:21:47.365Z,77.64
2022-08-17T23:24:19.633Z,77.56
2022-08-17T23:26:47.479Z,77.58
2022-08-17T23:29:14.447Z,77.48
2022-08-17T23:31:41.607Z,77.70
2022-08-17T23:34:12.809Z,77.66
2022-08-17T23:36:39.564Z,78.08
2022-08-17T23:39:07.078Z,77.72
2022-08-17T23:41:37.876Z,77.81
2022-08-17T23:44:05.644Z,77.99
2022-08-17T23:46:32.814Z,78.06
2022-08-17T23:49:00.586Z,78.26
2022-08-17T23:51:34.600Z,78.23
2022-08-17T23:54:09.364Z,78.19
2022-08-17T23:56:45.257Z,78.16
2022-08-17T23:59:13.932Z,78.28
